Ceuta Jet — 5BKM2 — position and weather

sailwx.info

Track history (hours):
 
Tides and Currents Weather Stations Pressure Air Temp Water Temp Dewpoint Dewpoint Depression Visibility Wind Speed Wind Dir Waves Ship Positions

Ceuta Jet

Last reported at 2017-Dec-15 14:40 UTC. Time now 2017-Dec-15 16:10 UTC.
Position N 36°01' W 005°21'.

Length 60 m; draft 2.4 m.

Type: High speed craft. MMSI: 212561000.

Date/timePositionNaut miles runAvg speedWind from/ knotsBaromVisibWave heightAir tempDewpointWater temp
2017-Dec-15 14:40N 36°01' W 005°21'424.9
2017-Dec-15 14:31N 35°58' W 005°20'4 7.8
2017-Dec-15 14:00N 35°54' W 005°19'0 0.5
2017-Dec-15 13:30N 35°54' W 005°19'8 4.3
2017-Dec-15 11:34N 36°02' W 005°21'226.0
2017-Dec-15 11:31N 36°00' W 005°20'713.3
2017-Dec-15 11:00N 35°54' W 005°19'1 1.2
2017-Dec-15 10:31N 35°54' W 005°19'7 3.6
2017-Dec-15 08:33N 36°01' W 005°21'126.8
2017-Dec-15 08:30N 35°59' W 005°20'611.5
2017-Dec-15 08:00N 35°54' W 005°19'0 0.0
2017-Dec-15 07:30N 35°54' W 005°19'0 0.0
2017-Dec-15 07:00N 35°54' W 005°19'3 6.9
2017-Dec-15 06:31N 35°57' W 005°19'1221.3
2017-Dec-15 05:56N 36°08' W 005°26'9 0.7
2017-Dec-14 17:28N 36°00' W 005°21'714.5
2017-Dec-14 17:00N 35°54' W 005°19'0 0.0
2017-Dec-14 16:30N 35°54' W 005°19'7 3.8
2017-Dec-14 14:34N 36°01' W 005°21'225.2
2017-Dec-14 14:30N 35°60' W 005°20'611.7
2017-Dec-14 14:00N 35°54' W 005°19'0 0.0
2017-Dec-14 13:31N 35°54' W 005°19'5 2.5
2017-Dec-14 11:24N 35°59' W 005°21'513.2
2017-Dec-14 11:00N 35°54' W 005°19'0 0.0
2017-Dec-14 10:31N 35°54' W 005°19'7 3.5
2017-Dec-14 08:29N 36°01' W 005°21'714.5
2017-Dec-14 08:00N 35°54' W 005°19'0 0.0
2017-Dec-14 07:30N 35°54' W 005°19'15 5.3
2017-Dec-14 04:41N 36°08' W 005°26'1 0.1
2017-Dec-13 20:50N 36°08' W 005°26'617.9
2017-Dec-13 20:30N 36°04' W 005°22'1020.3
2017-Dec-13 20:00N 35°54' W 005°19'0 0.0
2017-Dec-13 19:31N 35°54' W 005°19'6 3.0
2017-Dec-13 17:23N 35°60' W 005°21'617.2
2017-Dec-13 17:00N 35°54' W 005°19'0 0.8
2017-Dec-13 16:31N 35°54' W 005°19'6 2.6
2017-Dec-13 14:22N 35°59' W 005°21'5 0.8
2017-Dec-13 07:50N 35°54' W 005°19'0 0.0
2017-Dec-13 07:31N 35°54' W 005°19'15 5.3
2017-Dec-13 04:40N 36°08' W 005°26'0 0.0
2017-Dec-13 04:29N 36°08' W 005°26'0 0.0
2017-Dec-13 04:00N 36°08' W 005°26'0 0.0
2017-Dec-13 03:30N 36°08' W 005°26'0 0.0
2017-Dec-13 02:51N 36°08' W 005°26'0 0.0
2017-Dec-13 02:25N 36°08' W 005°26'0 0.0
2017-Dec-13 01:55N 36°08' W 005°26'0 0.0
2017-Dec-13 01:30N 36°08' W 005°26'1 0.2
2017-Dec-12 20:52N 36°08' W 005°26'720.5
2017-Dec-12 20:30N 36°02' W 005°22'816.9
2017-Dec-12 20:01N 35°54' W 005°19'1 1.0
2017-Dec-12 19:31N 35°54' W 005°19'7 3.3
2017-Dec-12 17:30N 36°00' W 005°20'612.9
2017-Dec-12 17:00N 35°54' W 005°19'0 0.0
2017-Dec-12 16:30N 35°54' W 005°19'8 3.7
2017-Dec-12 14:27N 36°01' W 005°21'816.9
2017-Dec-12 14:00N 35°54' W 005°19'0 0.0
2017-Dec-12 13:30N 35°54' W 005°19'15 1.4
2017-Dec-12 03:03N 36°08' W 005°26'0 0.0
2017-Dec-12 02:59N 36°08' W 005°26'0 0.0
2017-Dec-12 02:30N 36°08' W 005°26'0 0.0
2017-Dec-12 02:00N 36°08' W 005°26'0 0.0
2017-Dec-12 01:30N 36°08' W 005°26'0 0.0
2017-Dec-12 01:00N 36°08' W 005°26'0 0.0
2017-Dec-12 00:30N 36°08' W 005°26'0 0.0
2017-Dec-12 00:00N 36°08' W 005°26'0 0.0
2017-Dec-11 23:30N 36°08' W 005°26'0 0.0
2017-Dec-11 23:00N 36°08' W 005°26'0 0.0
2017-Dec-11 22:30N 36°08' W 005°26'0 0.0
2017-Dec-11 22:00N 36°08' W 005°26'0 0.0
2017-Dec-11 21:30N 36°08' W 005°26'0 0.3
2017-Dec-11 21:00N 36°08' W 005°26'714.0
2017-Dec-11 20:31N 36°02' W 005°22'813.2
2017-Dec-11 19:53N 35°54' W 005°19'0 0.2
2017-Dec-11 19:30N 35°54' W 005°19'1222.7
2017-Dec-11 19:00N 36°05' W 005°23'4 5.4
2017-Dec-11 18:17N 36°08' W 005°26'0 0.0
2017-Dec-11 18:00N 36°08' W 005°26'  
Track history (hours):
 
Tides and Currents Weather Stations Pressure Air Temp Water Temp Dewpoint Dewpoint Depression Visibility Wind Speed Wind Dir Waves Ship Positions

Ceuta Jet

Last reported at 2017-Dec-15 14:40 UTC. Time now 2017-Dec-15 16:10 UTC.
Position N 36°01' W 005°21'.

Length 60 m; draft 2.4 m.

Type: High speed craft. MMSI: 212561000.

Date/timePositionNaut miles runAvg speedWind from/ knotsBaromVisibWave heightAir tempDewpointWater temp
2017-Dec-15 14:40N 36°01' W 005°21'424.9
2017-Dec-15 14:31N 35°58' W 005°20'4 7.8
2017-Dec-15 14:00N 35°54' W 005°19'0 0.5
2017-Dec-15 13:30N 35°54' W 005°19'8 4.3
2017-Dec-15 11:34N 36°02' W 005°21'226.0
2017-Dec-15 11:31N 36°00' W 005°20'713.3
2017-Dec-15 11:00N 35°54' W 005°19'1 1.2
2017-Dec-15 10:31N 35°54' W 005°19'7 3.6
2017-Dec-15 08:33N 36°01' W 005°21'126.8
2017-Dec-15 08:30N 35°59' W 005°20'611.5
2017-Dec-15 08:00N 35°54' W 005°19'0 0.0
2017-Dec-15 07:30N 35°54' W 005°19'0 0.0
2017-Dec-15 07:00N 35°54' W 005°19'3 6.9
2017-Dec-15 06:31N 35°57' W 005°19'1221.3
2017-Dec-15 05:56N 36°08' W 005°26'9 0.7
2017-Dec-14 17:28N 36°00' W 005°21'714.5
2017-Dec-14 17:00N 35°54' W 005°19'0 0.0
2017-Dec-14 16:30N 35°54' W 005°19'7 3.8
2017-Dec-14 14:34N 36°01' W 005°21'225.2
2017-Dec-14 14:30N 35°60' W 005°20'611.7
2017-Dec-14 14:00N 35°54' W 005°19'0 0.0
2017-Dec-14 13:31N 35°54' W 005°19'5 2.5
2017-Dec-14 11:24N 35°59' W 005°21'513.2
2017-Dec-14 11:00N 35°54' W 005°19'0 0.0
2017-Dec-14 10:31N 35°54' W 005°19'7 3.5
2017-Dec-14 08:29N 36°01' W 005°21'714.5
2017-Dec-14 08:00N 35°54' W 005°19'0 0.0
2017-Dec-14 07:30N 35°54' W 005°19'15 5.3
2017-Dec-14 04:41N 36°08' W 005°26'1 0.1
2017-Dec-13 20:50N 36°08' W 005°26'617.9
2017-Dec-13 20:30N 36°04' W 005°22'1020.3
2017-Dec-13 20:00N 35°54' W 005°19'0 0.0
2017-Dec-13 19:31N 35°54' W 005°19'6 3.0
2017-Dec-13 17:23N 35°60' W 005°21'617.2
2017-Dec-13 17:00N 35°54' W 005°19'0 0.8
2017-Dec-13 16:31N 35°54' W 005°19'6 2.6
2017-Dec-13 14:22N 35°59' W 005°21'5 0.8
2017-Dec-13 07:50N 35°54' W 005°19'0 0.0
2017-Dec-13 07:31N 35°54' W 005°19'15 5.3
2017-Dec-13 04:40N 36°08' W 005°26'0 0.0
2017-Dec-13 04:29N 36°08' W 005°26'0 0.0
2017-Dec-13 04:00N 36°08' W 005°26'0 0.0
2017-Dec-13 03:30N 36°08' W 005°26'0 0.0
2017-Dec-13 02:51N 36°08' W 005°26'0 0.0
2017-Dec-13 02:25N 36°08' W 005°26'0 0.0
2017-Dec-13 01:55N 36°08' W 005°26'0 0.0
2017-Dec-13 01:30N 36°08' W 005°26'1 0.2
2017-Dec-12 20:52N 36°08' W 005°26'720.5
2017-Dec-12 20:30N 36°02' W 005°22'816.9
2017-Dec-12 20:01N 35°54' W 005°19'1 1.0
2017-Dec-12 19:31N 35°54' W 005°19'7 3.3
2017-Dec-12 17:30N 36°00' W 005°20'612.9
2017-Dec-12 17:00N 35°54' W 005°19'0 0.0
2017-Dec-12 16:30N 35°54' W 005°19'8 3.7
2017-Dec-12 14:27N 36°01' W 005°21'816.9
2017-Dec-12 14:00N 35°54' W 005°19'0 0.0
2017-Dec-12 13:30N 35°54' W 005°19'15 1.4
2017-Dec-12 03:03N 36°08' W 005°26'0 0.0
2017-Dec-12 02:59N 36°08' W 005°26'0 0.0
2017-Dec-12 02:30N 36°08' W 005°26'0 0.0
2017-Dec-12 02:00N 36°08' W 005°26'0 0.0
2017-Dec-12 01:30N 36°08' W 005°26'0 0.0
2017-Dec-12 01:00N 36°08' W 005°26'0 0.0
2017-Dec-12 00:30N 36°08' W 005°26'0 0.0
2017-Dec-12 00:00N 36°08' W 005°26'0 0.0
2017-Dec-11 23:30N 36°08' W 005°26'0 0.0
2017-Dec-11 23:00N 36°08' W 005°26'0 0.0
2017-Dec-11 22:30N 36°08' W 005°26'0 0.0
2017-Dec-11 22:00N 36°08' W 005°26'0 0.0
2017-Dec-11 21:30N 36°08' W 005°26'0 0.3
2017-Dec-11 21:00N 36°08' W 005°26'714.0
2017-Dec-11 20:31N 36°02' W 005°22'813.2
2017-Dec-11 19:53N 35°54' W 005°19'0 0.2
2017-Dec-11 19:30N 35°54' W 005°19'1222.7
2017-Dec-11 19:00N 36°05' W 005°23'4 5.4
2017-Dec-11 18:17N 36°08' W 005°26'0 0.0
2017-Dec-11 18:00N 36°08' W 005°26'  

Dump ship's entire track history